sensor_id;sensor_type;location;lat;lon;timestamp;P1;durP1;ratioP1;P2;durP2;ratioP2
78916;SDS011;68315;48.608;11.436;2023-12-07T00:01:31;24.08;;;14.68;;
78916;SDS011;68315;48.608;11.436;2023-12-07T00:03:56;23.50;;;15.40;;
78916;SDS011;68315;48.608;11.436;2023-12-07T00:06:22;28.60;;;16.80;;
78916;SDS011;68315;48.608;11.436;2023-12-07T00:08:47;24.77;;;15.02;;
78916;SDS011;68315;48.608;11.436;2023-12-07T00:11:12;25.15;;;17.13;;
78916;SDS011;68315;48.608;11.436;2023-12-07T00:13:37;28.85;;;16.80;;
78916;SDS011;68315;48.608;11.436;2023-12-07T00:16:03;27.48;;;17.00;;
78916;SDS011;68315;48.608;11.436;2023-12-07T00:18:28;25.45;;;15.18;;
78916;SDS011;68315;48.608;11.436;2023-12-07T00:20:53;22.75;;;14.60;;
78916;SDS011;68315;48.608;11.436;2023-12-07T00:23:19;23.90;;;15.70;;
78916;SDS011;68315;48.608;11.436;2023-12-07T00:25:44;25.38;;;15.52;;
78916;SDS011;68315;48.608;11.436;2023-12-07T00:28:10;24.60;;;16.40;;
78916;SDS011;68315;48.608;11.436;2023-12-07T00:30:36;24.73;;;15.88;;
78916;SDS011;68315;48.608;11.436;2023-12-07T00:33:01;23.42;;;15.18;;
78916;SDS011;68315;48.608;11.436;2023-12-07T00:35:26;27.08;;;17.45;;
78916;SDS011;68315;48.608;11.436;2023-12-07T00:37:53;25.25;;;16.52;;
78916;SDS011;68315;48.608;11.436;2023-12-07T00:40:19;29.98;;;17.83;;
78916;SDS011;68315;48.608;11.436;2023-12-07T00:42:44;27.55;;;17.52;;
78916;SDS011;68315;48.608;11.436;2023-12-07T00:45:11;29.60;;;17.92;;
78916;SDS011;68315;48.608;11.436;2023-12-07T00:47:36;30.20;;;18.30;;
78916;SDS011;68315;48.608;11.436;2023-12-07T00:50:02;28.27;;;18.13;;
78916;SDS011;68315;48.608;11.436;2023-12-07T00:52:27;31.73;;;18.63;;
78916;SDS011;68315;48.608;11.436;2023-12-07T00:54:53;33.63;;;19.73;;
78916;SDS011;68315;48.608;11.436;2023-12-07T00:57:21;29.55;;;19.45;;
78916;SDS011;68315;48.608;11.436;2023-12-07T00:59:46;29.77;;;18.52;;
78916;SDS011;68315;48.608;11.436;2023-12-07T01:02:12;30.55;;;19.73;;
78916;SDS011;68315;48.608;11.436;2023-12-07T01:04:37;29.23;;;19.13;;
78916;SDS011;68315;48.608;11.436;2023-12-07T01:07:02;28.67;;;18.02;;
78916;SDS011;68315;48.608;11.436;2023-12-07T01:09:28;30.95;;;18.50;;
78916;SDS011;68315;48.608;11.436;2023-12-07T01:11:53;32.13;;;20.10;;
78916;SDS011;68315;48.608;11.436;2023-12-07T01:14:18;32.13;;;21.08;;
78916;SDS011;68315;48.608;11.436;2023-12-07T01:16:44;29.05;;;18.65;;
78916;SDS011;68315;48.608;11.436;2023-12-07T01:19:10;28.33;;;17.63;;
78916;SDS011;68315;48.608;11.436;2023-12-07T01:21:39;24.27;;;15.40;;
78916;SDS011;68315;48.608;11.436;2023-12-07T01:24:04;27.67;;;17.48;;
78916;SDS011;68315;48.608;11.436;2023-12-07T01:26:30;25.13;;;16.48;;
78916;SDS011;68315;48.608;11.436;2023-12-07T01:28:55;25.20;;;16.55;;
78916;SDS011;68315;48.608;11.436;2023-12-07T01:31:20;29.70;;;18.25;;
78916;SDS011;68315;48.608;11.436;2023-12-07T01:33:45;28.65;;;17.73;;
78916;SDS011;68315;48.608;11.436;2023-12-07T01:36:10;30.83;;;19.02;;
78916;SDS011;68315;48.608;11.436;2023-12-07T01:38:36;31.17;;;19.05;;
78916;SDS011;68315;48.608;11.436;2023-12-07T01:41:02;30.58;;;19.80;;
78916;SDS011;68315;48.608;11.436;2023-12-07T01:43:27;32.67;;;19.75;;
78916;SDS011;68315;48.608;11.436;2023-12-07T01:45:53;33.08;;;19.05;;
78916;SDS011;68315;48.608;11.436;2023-12-07T01:48:21;32.53;;;20.77;;
78916;SDS011;68315;48.608;11.436;2023-12-07T01:50:48;31.05;;;19.55;;
78916;SDS011;68315;48.608;11.436;2023-12-07T01:53:14;33.47;;;21.80;;
78916;SDS011;68315;48.608;11.436;2023-12-07T01:55:40;36.53;;;21.63;;
78916;SDS011;68315;48.608;11.436;2023-12-07T01:58:06;37.80;;;23.08;;
78916;SDS011;68315;48.608;11.436;2023-12-07T02:00:32;36.53;;;22.10;;
78916;SDS011;68315;48.608;11.436;2023-12-07T02:02:58;37.25;;;22.17;;
78916;SDS011;68315;48.608;11.436;2023-12-07T02:05:24;36.38;;;23.00;;
78916;SDS011;68315;48.608;11.436;2023-12-07T02:07:50;34.63;;;21.98;;
78916;SDS011;68315;48.608;11.436;2023-12-07T02:10:15;31.92;;;20.40;;
78916;SDS011;68315;48.608;11.436;2023-12-07T02:12:41;32.67;;;21.02;;
78916;SDS011;68315;48.608;11.436;2023-12-07T02:15:06;35.13;;;21.08;;
78916;SDS011;68315;48.608;11.436;2023-12-07T02:17:33;31.40;;;20.70;;
78916;SDS011;68315;48.608;11.436;2023-12-07T02:20:10;33.65;;;21.30;;
78916;SDS011;68315;48.608;11.436;2023-12-07T02:22:46;32.78;;;21.58;;
78916;SDS011;68315;48.608;11.436;2023-12-07T02:25:18;33.88;;;21.30;;
78916;SDS011;68315;48.608;11.436;2023-12-07T02:27:44;35.35;;;22.33;;
78916;SDS011;68315;48.608;11.436;2023-12-07T02:30:13;35.80;;;22.05;;
78916;SDS011;68315;48.608;11.436;2023-12-07T02:32:40;35.08;;;23.30;;
78916;SDS011;68315;48.608;11.436;2023-12-07T02:35:08;38.78;;;23.05;;
78916;SDS011;68315;48.608;11.436;2023-12-07T02:37:40;34.25;;;21.20;;
78916;SDS011;68315;48.608;11.436;2023-12-07T02:40:09;33.50;;;20.27;;
78916;SDS011;68315;48.608;11.436;2023-12-07T02:42:35;31.52;;;18.98;;
78916;SDS011;68315;48.608;11.436;2023-12-07T02:45:03;34.35;;;21.20;;
78916;SDS011;68315;48.608;11.436;2023-12-07T02:47:29;30.92;;;19.67;;
78916;SDS011;68315;48.608;11.436;2023-12-07T02:49:54;27.73;;;17.15;;
78916;SDS011;68315;48.608;11.436;2023-12-07T02:52:19;30.80;;;20.33;;
78916;SDS011;68315;48.608;11.436;2023-12-07T02:54:45;26.52;;;17.60;;
78916;SDS011;68315;48.608;11.436;2023-12-07T02:57:10;34.05;;;21.55;;
78916;SDS011;68315;48.608;11.436;2023-12-07T02:59:35;30.95;;;19.88;;
78916;SDS011;68315;48.608;11.436;2023-12-07T03:02:00;33.92;;;20.73;;
78916;SDS011;68315;48.608;11.436;2023-12-07T03:04:25;28.60;;;16.33;;
78916;SDS011;68315;48.608;11.436;2023-12-07T03:06:51;22.30;;;14.52;;
78916;SDS011;68315;48.608;11.436;2023-12-07T03:09:16;23.50;;;14.55;;
78916;SDS011;68315;48.608;11.436;2023-12-07T03:11:41;21.15;;;13.63;;
78916;SDS011;68315;48.608;11.436;2023-12-07T03:14:07;19.02;;;13.00;;
78916;SDS011;68315;48.608;11.436;2023-12-07T03:16:32;26.63;;;15.98;;
78916;SDS011;68315;48.608;11.436;2023-12-07T03:18:57;32.85;;;20.45;;
78916;SDS011;68315;48.608;11.436;2023-12-07T03:21:22;30.23;;;18.88;;
78916;SDS011;68315;48.608;11.436;2023-12-07T03:23:48;28.58;;;16.92;;
78916;SDS011;68315;48.608;11.436;2023-12-07T03:26:14;30.02;;;19.10;;
78916;SDS011;68315;48.608;11.436;2023-12-07T03:28:40;31.38;;;19.88;;
78916;SDS011;68315;48.608;11.436;2023-12-07T03:31:05;30.00;;;19.20;;
78916;SDS011;68315;48.608;11.436;2023-12-07T03:33:30;29.15;;;18.27;;
78916;SDS011;68315;48.608;11.436;2023-12-07T03:35:56;33.22;;;20.25;;
78916;SDS011;68315;48.608;11.436;2023-12-07T03:38:21;33.65;;;20.48;;
78916;SDS011;68315;48.608;11.436;2023-12-07T03:40:47;31.88;;;19.77;;
78916;SDS011;68315;48.608;11.436;2023-12-07T03:43:13;30.92;;;19.33;;
78916;SDS011;68315;48.608;11.436;2023-12-07T03:45:38;28.85;;;18.98;;
78916;SDS011;68315;48.608;11.436;2023-12-07T03:48:03;27.52;;;18.88;;
78916;SDS011;68315;48.608;11.436;2023-12-07T03:50:29;29.27;;;18.33;;
78916;SDS011;68315;48.608;11.436;2023-12-07T03:52:54;30.35;;;18.98;;
78916;SDS011;68315;48.608;11.436;2023-12-07T03:55:20;28.30;;;17.50;;
78916;SDS011;68315;48.608;11.436;2023-12-07T03:57:45;34.10;;;20.15;;
78916;SDS011;68315;48.608;11.436;2023-12-07T04:00:11;32.05;;;20.15;;
78916;SDS011;68315;48.608;11.436;2023-12-07T04:02:37;30.27;;;19.58;;
78916;SDS011;68315;48.608;11.436;2023-12-07T04:05:02;31.55;;;18.88;;
78916;SDS011;68315;48.608;11.436;2023-12-07T04:07:28;30.25;;;19.40;;
78916;SDS011;68315;48.608;11.436;2023-12-07T04:09:54;35.38;;;20.52;;
78916;SDS011;68315;48.608;11.436;2023-12-07T04:12:20;31.50;;;18.75;;
78916;SDS011;68315;48.608;11.436;2023-12-07T04:14:45;27.67;;;17.88;;
78916;SDS011;68315;48.608;11.436;2023-12-07T04:17:10;30.00;;;18.98;;
78916;SDS011;68315;48.608;11.436;2023-12-07T04:19:35;31.63;;;18.63;;
78916;SDS011;68315;48.608;11.436;2023-12-07T04:22:01;27.02;;;18.10;;
78916;SDS011;68315;48.608;11.436;2023-12-07T04:24:26;30.92;;;18.63;;
78916;SDS011;68315;48.608;11.436;2023-12-07T04:26:51;30.95;;;19.08;;
78916;SDS011;68315;48.608;11.436;2023-12-07T04:29:16;27.13;;;17.35;;
78916;SDS011;68315;48.608;11.436;2023-12-07T04:31:41;27.10;;;17.60;;
78916;SDS011;68315;48.608;11.436;2023-12-07T04:34:07;28.13;;;16.90;;
78916;SDS011;68315;48.608;11.436;2023-12-07T04:36:32;33.47;;;20.30;;
78916;SDS011;68315;48.608;11.436;2023-12-07T04:38:57;28.20;;;18.98;;
78916;SDS011;68315;48.608;11.436;2023-12-07T04:41:22;27.98;;;17.27;;
78916;SDS011;68315;48.608;11.436;2023-12-07T04:43:48;27.40;;;17.77;;
78916;SDS011;68315;48.608;11.436;2023-12-07T04:46:13;28.92;;;18.98;;
78916;SDS011;68315;48.608;11.436;2023-12-07T04:48:38;27.02;;;17.60;;
78916;SDS011;68315;48.608;11.436;2023-12-07T04:51:03;28.83;;;18.48;;
78916;SDS011;68315;48.608;11.436;2023-12-07T04:53:29;28.58;;;17.38;;
78916;SDS011;68315;48.608;11.436;2023-12-07T04:55:54;31.52;;;17.65;;
78916;SDS011;68315;48.608;11.436;2023-12-07T04:58:20;28.80;;;18.30;;
78916;SDS011;68315;48.608;11.436;2023-12-07T05:00:45;28.17;;;16.73;;
78916;SDS011;68315;48.608;11.436;2023-12-07T05:03:10;27.67;;;17.30;;
78916;SDS011;68315;48.608;11.436;2023-12-07T05:05:35;21.20;;;14.50;;
78916;SDS011;68315;48.608;11.436;2023-12-07T05:08:01;25.05;;;15.45;;
78916;SDS011;68315;48.608;11.436;2023-12-07T05:10:26;21.27;;;14.55;;
78916;SDS011;68315;48.608;11.436;2023-12-07T05:12:51;25.15;;;16.27;;
78916;SDS011;68315;48.608;11.436;2023-12-07T05:15:17;20.08;;;13.85;;
78916;SDS011;68315;48.608;11.436;2023-12-07T05:17:42;24.58;;;15.65;;
78916;SDS011;68315;48.608;11.436;2023-12-07T05:20:07;23.75;;;15.73;;
78916;SDS011;68315;48.608;11.436;2023-12-07T05:22:33;24.80;;;15.50;;
78916;SDS011;68315;48.608;11.436;2023-12-07T05:24:58;24.77;;;15.68;;
78916;SDS011;68315;48.608;11.436;2023-12-07T05:27:23;23.50;;;14.73;;
78916;SDS011;68315;48.608;11.436;2023-12-07T05:29:49;20.75;;;14.32;;
78916;SDS011;68315;48.608;11.436;2023-12-07T05:32:14;20.35;;;13.70;;
78916;SDS011;68315;48.608;11.436;2023-12-07T05:34:39;19.38;;;13.73;;
78916;SDS011;68315;48.608;11.436;2023-12-07T05:37:04;21.00;;;13.57;;
78916;SDS011;68315;48.608;11.436;2023-12-07T05:39:29;18.83;;;13.00;;
78916;SDS011;68315;48.608;11.436;2023-12-07T05:41:55;18.58;;;12.20;;
78916;SDS011;68315;48.608;11.436;2023-12-07T05:44:20;18.80;;;11.65;;
78916;SDS011;68315;48.608;11.436;2023-12-07T05:46:47;17.90;;;12.15;;
78916;SDS011;68315;48.608;11.436;2023-12-07T05:49:13;17.48;;;12.02;;
78916;SDS011;68315;48.608;11.436;2023-12-07T05:51:41;22.52;;;13.55;;
78916;SDS011;68315;48.608;11.436;2023-12-07T05:54:06;18.27;;;11.68;;
78916;SDS011;68315;48.608;11.436;2023-12-07T05:56:31;20.98;;;14.13;;
78916;SDS011;68315;48.608;11.436;2023-12-07T05:58:56;20.75;;;13.60;;
78916;SDS011;68315;48.608;11.436;2023-12-07T06:01:22;22.90;;;14.55;;
78916;SDS011;68315;48.608;11.436;2023-12-07T06:03:47;23.15;;;14.90;;
78916;SDS011;68315;48.608;11.436;2023-12-07T06:06:12;22.85;;;14.45;;
78916;SDS011;68315;48.608;11.436;2023-12-07T06:08:37;23.17;;;15.35;;
78916;SDS011;68315;48.608;11.436;2023-12-07T06:11:03;21.67;;;13.60;;
78916;SDS011;68315;48.608;11.436;2023-12-07T06:13:28;19.48;;;12.95;;
78916;SDS011;68315;48.608;11.436;2023-12-07T06:15:53;18.15;;;12.38;;
78916;SDS011;68315;48.608;11.436;2023-12-07T06:18:19;22.88;;;13.13;;
78916;SDS011;68315;48.608;11.436;2023-12-07T06:20:44;29.95;;;18.83;;
78916;SDS011;68315;48.608;11.436;2023-12-07T06:23:10;24.17;;;16.50;;
78916;SDS011;68315;48.608;11.436;2023-12-07T06:25:38;24.02;;;15.98;;
78916;SDS011;68315;48.608;11.436;2023-12-07T06:28:03;19.80;;;13.82;;
78916;SDS011;68315;48.608;11.436;2023-12-07T06:30:29;20.35;;;12.55;;
78916;SDS011;68315;48.608;11.436;2023-12-07T06:32:54;18.35;;;12.43;;
78916;SDS011;68315;48.608;11.436;2023-12-07T06:35:20;18.23;;;12.15;;
78916;SDS011;68315;48.608;11.436;2023-12-07T06:37:45;23.20;;;14.48;;
78916;SDS011;68315;48.608;11.436;2023-12-07T06:40:10;23.00;;;13.48;;
78916;SDS011;68315;48.608;11.436;2023-12-07T06:42:35;21.63;;;13.00;;
78916;SDS011;68315;48.608;11.436;2023-12-07T06:45:01;19.63;;;12.00;;
78916;SDS011;68315;48.608;11.436;2023-12-07T06:47:27;24.77;;;15.95;;
78916;SDS011;68315;48.608;11.436;2023-12-07T06:49:52;24.98;;;15.18;;
78916;SDS011;68315;48.608;11.436;2023-12-07T06:52:20;20.17;;;12.98;;
78916;SDS011;68315;48.608;11.436;2023-12-07T06:54:45;21.48;;;14.18;;
78916;SDS011;68315;48.608;11.436;2023-12-07T06:57:10;21.65;;;14.02;;
78916;SDS011;68315;48.608;11.436;2023-12-07T06:59:36;20.05;;;12.63;;
78916;SDS011;68315;48.608;11.436;2023-12-07T07:02:01;16.20;;;11.50;;
78916;SDS011;68315;48.608;11.436;2023-12-07T07:04:27;20.85;;;13.63;;
78916;SDS011;68315;48.608;11.436;2023-12-07T07:06:52;20.00;;;13.27;;
78916;SDS011;68315;48.608;11.436;2023-12-07T07:09:17;23.20;;;14.43;;
78916;SDS011;68315;48.608;11.436;2023-12-07T07:11:47;26.42;;;15.50;;
78916;SDS011;68315;48.608;11.436;2023-12-07T07:14:12;21.30;;;13.75;;
78916;SDS011;68315;48.608;11.436;2023-12-07T07:16:38;19.50;;;13.23;;
78916;SDS011;68315;48.608;11.436;2023-12-07T07:19:03;18.10;;;12.02;;
78916;SDS011;68315;48.608;11.436;2023-12-07T07:21:28;15.88;;;10.57;;
78916;SDS011;68315;48.608;11.436;2023-12-07T07:23:53;16.13;;;11.00;;
78916;SDS011;68315;48.608;11.436;2023-12-07T07:26:19;16.45;;;11.77;;
78916;SDS011;68315;48.608;11.436;2023-12-07T07:28:44;17.20;;;11.43;;
78916;SDS011;68315;48.608;11.436;2023-12-07T07:31:09;17.30;;;11.50;;
78916;SDS011;68315;48.608;11.436;2023-12-07T07:33:34;19.25;;;12.55;;
78916;SDS011;68315;48.608;11.436;2023-12-07T07:35:59;16.95;;;11.82;;
78916;SDS011;68315;48.608;11.436;2023-12-07T07:38:25;21.13;;;13.80;;
78916;SDS011;68315;48.608;11.436;2023-12-07T07:40:50;21.17;;;14.05;;
78916;SDS011;68315;48.608;11.436;2023-12-07T07:43:15;19.27;;;11.80;;
78916;SDS011;68315;48.608;11.436;2023-12-07T07:45:40;19.65;;;12.85;;
78916;SDS011;68315;48.608;11.436;2023-12-07T07:48:05;19.00;;;12.68;;
78916;SDS011;68315;48.608;11.436;2023-12-07T07:50:31;19.42;;;12.25;;
78916;SDS011;68315;48.608;11.436;2023-12-07T07:52:57;23.15;;;14.73;;
78916;SDS011;68315;48.608;11.436;2023-12-07T07:55:22;18.85;;;13.55;;
78916;SDS011;68315;48.608;11.436;2023-12-07T07:57:47;17.58;;;12.27;;
78916;SDS011;68315;48.608;11.436;2023-12-07T08:00:12;19.30;;;13.20;;
78916;SDS011;68315;48.608;11.436;2023-12-07T08:02:38;25.70;;;15.48;;
78916;SDS011;68315;48.608;11.436;2023-12-07T08:05:04;25.83;;;16.17;;
78916;SDS011;68315;48.608;11.436;2023-12-07T08:07:29;22.42;;;14.32;;
78916;SDS011;68315;48.608;11.436;2023-12-07T08:09:54;25.20;;;16.33;;
78916;SDS011;68315;48.608;11.436;2023-12-07T08:12:20;25.40;;;16.10;;
78916;SDS011;68315;48.608;11.436;2023-12-07T08:14:47;19.40;;;12.15;;
78916;SDS011;68315;48.608;11.436;2023-12-07T08:17:13;20.33;;;13.48;;
78916;SDS011;68315;48.608;11.436;2023-12-07T08:19:39;20.73;;;12.98;;
78916;SDS011;68315;48.608;11.436;2023-12-07T08:22:06;23.35;;;14.77;;
78916;SDS011;68315;48.608;11.436;2023-12-07T08:24:32;23.17;;;14.68;;
78916;SDS011;68315;48.608;11.436;2023-12-07T08:26:57;22.67;;;13.68;;
78916;SDS011;68315;48.608;11.436;2023-12-07T08:29:22;23.05;;;14.00;;
78916;SDS011;68315;48.608;11.436;2023-12-07T08:31:47;23.25;;;14.50;;
78916;SDS011;68315;48.608;11.436;2023-12-07T08:34:13;22.98;;;14.02;;
78916;SDS011;68315;48.608;11.436;2023-12-07T08:36:38;20.27;;;13.90;;
78916;SDS011;68315;48.608;11.436;2023-12-07T08:39:04;21.55;;;14.35;;
78916;SDS011;68315;48.608;11.436;2023-12-07T08:41:34;24.20;;;15.63;;
78916;SDS011;68315;48.608;11.436;2023-12-07T08:43:59;26.63;;;16.65;;
78916;SDS011;68315;48.608;11.436;2023-12-07T08:46:25;26.20;;;16.67;;
78916;SDS011;68315;48.608;11.436;2023-12-07T08:48:50;20.92;;;13.88;;
78916;SDS011;68315;48.608;11.436;2023-12-07T08:51:15;20.05;;;13.18;;
78916;SDS011;68315;48.608;11.436;2023-12-07T08:53:40;20.92;;;12.82;;
78916;SDS011;68315;48.608;11.436;2023-12-07T08:56:06;22.20;;;13.68;;
78916;SDS011;68315;48.608;11.436;2023-12-07T08:58:31;19.08;;;12.57;;
78916;SDS011;68315;48.608;11.436;2023-12-07T09:00:57;22.55;;;15.32;;
78916;SDS011;68315;48.608;11.436;2023-12-07T09:03:22;19.63;;;14.23;;
78916;SDS011;68315;48.608;11.436;2023-12-07T09:05:52;20.00;;;13.93;;
78916;SDS011;68315;48.608;11.436;2023-12-07T09:08:18;21.00;;;14.20;;
78916;SDS011;68315;48.608;11.436;2023-12-07T09:10:43;20.65;;;13.00;;
78916;SDS011;68315;48.608;11.436;2023-12-07T09:13:08;17.35;;;12.15;;
78916;SDS011;68315;48.608;11.436;2023-12-07T09:15:33;17.98;;;12.98;;
78916;SDS011;68315;48.608;11.436;2023-12-07T09:18:02;18.13;;;13.10;;
78916;SDS011;68315;48.608;11.436;2023-12-07T09:20:27;23.25;;;16.67;;
78916;SDS011;68315;48.608;11.436;2023-12-07T09:22:52;19.83;;;13.27;;
78916;SDS011;68315;48.608;11.436;2023-12-07T09:25:19;18.83;;;12.52;;
78916;SDS011;68315;48.608;11.436;2023-12-07T09:27:46;18.85;;;13.27;;
78916;SDS011;68315;48.608;11.436;2023-12-07T09:30:12;21.25;;;13.90;;
78916;SDS011;68315;48.608;11.436;2023-12-07T09:32:39;19.05;;;13.18;;
78916;SDS011;68315;48.608;11.436;2023-12-07T09:35:05;18.67;;;12.07;;
78916;SDS011;68315;48.608;11.436;2023-12-07T09:37:39;15.98;;;11.82;;
78916;SDS011;68315;48.608;11.436;2023-12-07T09:40:05;15.75;;;11.23;;
78916;SDS011;68315;48.608;11.436;2023-12-07T09:42:32;16.60;;;12.00;;
78916;SDS011;68315;48.608;11.436;2023-12-07T09:44:57;15.13;;;11.55;;
78916;SDS011;68315;48.608;11.436;2023-12-07T09:47:23;17.52;;;12.00;;
78916;SDS011;68315;48.608;11.436;2023-12-07T09:49:48;17.88;;;12.20;;
78916;SDS011;68315;48.608;11.436;2023-12-07T09:52:14;19.08;;;12.73;;
78916;SDS011;68315;48.608;11.436;2023-12-07T09:54:40;17.40;;;12.05;;
78916;SDS011;68315;48.608;11.436;2023-12-07T09:57:07;18.63;;;13.63;;
78916;SDS011;68315;48.608;11.436;2023-12-07T09:59:34;18.27;;;13.38;;
78916;SDS011;68315;48.608;11.436;2023-12-07T10:02:00;17.05;;;11.65;;
78916;SDS011;68315;48.608;11.436;2023-12-07T10:04:25;17.77;;;12.52;;
78916;SDS011;68315;48.608;11.436;2023-12-07T10:06:51;17.42;;;13.80;;
78916;SDS011;68315;48.608;11.436;2023-12-07T10:09:17;14.40;;;11.57;;
78916;SDS011;68315;48.608;11.436;2023-12-07T10:11:46;14.80;;;10.77;;
78916;SDS011;68315;48.608;11.436;2023-12-07T10:14:12;14.57;;;11.02;;
78916;SDS011;68315;48.608;11.436;2023-12-07T10:16:37;22.33;;;15.20;;
78916;SDS011;68315;48.608;11.436;2023-12-07T10:19:23;16.08;;;11.23;;
78916;SDS011;68315;48.608;11.436;2023-12-07T10:24:15;15.07;;;10.77;;
78916;SDS011;68315;48.608;11.436;2023-12-07T10:26:41;15.25;;;11.52;;
78916;SDS011;68315;48.608;11.436;2023-12-07T10:29:08;16.80;;;11.82;;
78916;SDS011;68315;48.608;11.436;2023-12-07T10:31:33;16.52;;;11.52;;
78916;SDS011;68315;48.608;11.436;2023-12-07T10:33:59;14.55;;;10.93;;
78916;SDS011;68315;48.608;11.436;2023-12-07T10:36:25;18.10;;;11.98;;
78916;SDS011;68315;48.608;11.436;2023-12-07T10:38:51;15.85;;;11.90;;
78916;SDS011;68315;48.608;11.436;2023-12-07T10:41:17;16.40;;;11.82;;
78916;SDS011;68315;48.608;11.436;2023-12-07T10:43:44;16.30;;;11.73;;
78916;SDS011;68315;48.608;11.436;2023-12-07T10:46:32;16.23;;;11.73;;
78916;SDS011;68315;48.608;11.436;2023-12-07T10:49:00;14.93;;;11.68;;
78916;SDS011;68315;48.608;11.436;2023-12-07T10:51:30;15.23;;;11.85;;
78916;SDS011;68315;48.608;11.436;2023-12-07T10:53:59;15.48;;;12.20;;
78916;SDS011;68315;48.608;11.436;2023-12-07T10:56:28;13.93;;;10.48;;
78916;SDS011;68315;48.608;11.436;2023-12-07T10:58:58;20.58;;;12.88;;
78916;SDS011;68315;48.608;11.436;2023-12-07T11:01:23;13.80;;;11.32;;
78916;SDS011;68315;48.608;11.436;2023-12-07T11:03:51;15.70;;;10.90;;
78916;SDS011;68315;48.608;11.436;2023-12-07T11:06:18;15.63;;;12.18;;
78916;SDS011;68315;48.608;11.436;2023-12-07T11:08:49;15.90;;;12.27;;
78916;SDS011;68315;48.608;11.436;2023-12-07T11:14:02;16.58;;;12.82;;
78916;SDS011;68315;48.608;11.436;2023-12-07T11:16:32;15.52;;;11.80;;
78916;SDS011;68315;48.608;11.436;2023-12-07T11:18:59;16.55;;;11.60;;
78916;SDS011;68315;48.608;11.436;2023-12-07T11:21:24;14.80;;;10.95;;
78916;SDS011;68315;48.608;11.436;2023-12-07T11:23:50;17.90;;;12.32;;
78916;SDS011;68315;48.608;11.436;2023-12-07T11:26:19;13.60;;;10.68;;
78916;SDS011;68315;48.608;11.436;2023-12-07T11:28:45;15.70;;;12.32;;
78916;SDS011;68315;48.608;11.436;2023-12-07T11:31:11;15.48;;;12.10;;
78916;SDS011;68315;48.608;11.436;2023-12-07T11:33:40;15.85;;;12.50;;
78916;SDS011;68315;48.608;11.436;2023-12-07T11:36:06;13.73;;;11.30;;
78916;SDS011;68315;48.608;11.436;2023-12-07T11:38:33;14.57;;;10.95;;
78916;SDS011;68315;48.608;11.436;2023-12-07T11:40:59;13.85;;;11.38;;
78916;SDS011;68315;48.608;11.436;2023-12-07T11:45:59;14.50;;;11.75;;
78916;SDS011;68315;48.608;11.436;2023-12-07T11:48:24;15.07;;;12.35;;
78916;SDS011;68315;48.608;11.436;2023-12-07T11:51:00;16.08;;;11.80;;
78916;SDS011;68315;48.608;11.436;2023-12-07T11:53:38;14.15;;;10.55;;
78916;SDS011;68315;48.608;11.436;2023-12-07T11:56:04;12.43;;;10.60;;
78916;SDS011;68315;48.608;11.436;2023-12-07T11:58:32;15.93;;;11.30;;
78916;SDS011;68315;48.608;11.436;2023-12-07T12:00:59;13.80;;;10.30;;
78916;SDS011;68315;48.608;11.436;2023-12-07T12:03:26;14.77;;;10.73;;
78916;SDS011;68315;48.608;11.436;2023-12-07T12:05:52;12.57;;;10.30;;
78916;SDS011;68315;48.608;11.436;2023-12-07T12:08:18;12.80;;;10.38;;
78916;SDS011;68315;48.608;11.436;2023-12-07T12:10:44;11.43;;;9.05;;
78916;SDS011;68315;48.608;11.436;2023-12-07T12:13:10;11.45;;;9.35;;
78916;SDS011;68315;48.608;11.436;2023-12-07T12:15:40;12.15;;;9.10;;
78916;SDS011;68315;48.608;11.436;2023-12-07T12:18:06;12.48;;;9.25;;
78916;SDS011;68315;48.608;11.436;2023-12-07T12:20:33;12.25;;;9.50;;
78916;SDS011;68315;48.608;11.436;2023-12-07T12:22:59;12.65;;;8.95;;
78916;SDS011;68315;48.608;11.436;2023-12-07T12:25:25;12.48;;;8.93;;
78916;SDS011;68315;48.608;11.436;2023-12-07T12:27:53;10.93;;;8.40;;
78916;SDS011;68315;48.608;11.436;2023-12-07T12:30:20;11.15;;;8.60;;
78916;SDS011;68315;48.608;11.436;2023-12-07T12:32:47;11.45;;;8.75;;
78916;SDS011;68315;48.608;11.436;2023-12-07T12:35:13;12.77;;;8.73;;
78916;SDS011;68315;48.608;11.436;2023-12-07T12:37:40;10.75;;;7.75;;
78916;SDS011;68315;48.608;11.436;2023-12-07T12:40:07;10.02;;;6.97;;
78916;SDS011;68315;48.608;11.436;2023-12-07T12:42:33;9.55;;;6.60;;
78916;SDS011;68315;48.608;11.436;2023-12-07T12:44:59;8.15;;;6.82;;
78916;SDS011;68315;48.608;11.436;2023-12-07T12:47:24;8.68;;;6.95;;
78916;SDS011;68315;48.608;11.436;2023-12-07T12:49:50;11.98;;;8.82;;
78916;SDS011;68315;48.608;11.436;2023-12-07T12:52:15;11.60;;;8.30;;
78916;SDS011;68315;48.608;11.436;2023-12-07T12:54:44;8.95;;;7.50;;
78916;SDS011;68315;48.608;11.436;2023-12-07T12:57:11;11.40;;;8.20;;
78916;SDS011;68315;48.608;11.436;2023-12-07T12:59:37;9.50;;;7.35;;
78916;SDS011;68315;48.608;11.436;2023-12-07T13:02:02;10.27;;;7.70;;
78916;SDS011;68315;48.608;11.436;2023-12-07T13:04:30;9.55;;;6.72;;
78916;SDS011;68315;48.608;11.436;2023-12-07T13:06:55;8.60;;;6.65;;
78916;SDS011;68315;48.608;11.436;2023-12-07T13:09:21;10.88;;;7.82;;
78916;SDS011;68315;48.608;11.436;2023-12-07T13:11:46;10.80;;;7.55;;
78916;SDS011;68315;48.608;11.436;2023-12-07T13:14:12;10.45;;;8.88;;
78916;SDS011;68315;48.608;11.436;2023-12-07T13:16:37;10.60;;;8.57;;
78916;SDS011;68315;48.608;11.436;2023-12-07T13:19:02;14.43;;;9.43;;
78916;SDS011;68315;48.608;11.436;2023-12-07T13:21:27;13.60;;;9.10;;
78916;SDS011;68315;48.608;11.436;2023-12-07T13:23:53;11.07;;;8.50;;
78916;SDS011;68315;48.608;11.436;2023-12-07T13:26:19;9.73;;;8.20;;
78916;SDS011;68315;48.608;11.436;2023-12-07T13:28:45;11.25;;;8.70;;
78916;SDS011;68315;48.608;11.436;2023-12-07T13:31:10;10.80;;;9.02;;
78916;SDS011;68315;48.608;11.436;2023-12-07T13:33:35;14.73;;;10.32;;
78916;SDS011;68315;48.608;11.436;2023-12-07T13:36:01;12.98;;;9.23;;
78916;SDS011;68315;48.608;11.436;2023-12-07T13:38:27;14.35;;;10.05;;
78916;SDS011;68315;48.608;11.436;2023-12-07T13:40:55;11.95;;;9.45;;
78916;SDS011;68315;48.608;11.436;2023-12-07T13:43:21;13.10;;;9.68;;
78916;SDS011;68315;48.608;11.436;2023-12-07T13:45:49;14.02;;;9.88;;
78916;SDS011;68315;48.608;11.436;2023-12-07T13:48:14;12.27;;;9.68;;
78916;SDS011;68315;48.608;11.436;2023-12-07T13:50:39;12.60;;;9.60;;
78916;SDS011;68315;48.608;11.436;2023-12-07T13:53:04;12.90;;;9.98;;
78916;SDS011;68315;48.608;11.436;2023-12-07T13:55:30;15.20;;;10.07;;
78916;SDS011;68315;48.608;11.436;2023-12-07T13:57:55;14.18;;;10.18;;
78916;SDS011;68315;48.608;11.436;2023-12-07T14:00:22;13.02;;;9.98;;
78916;SDS011;68315;48.608;11.436;2023-12-07T14:02:47;10.95;;;8.63;;
78916;SDS011;68315;48.608;11.436;2023-12-07T14:05:12;11.82;;;9.00;;
78916;SDS011;68315;48.608;11.436;2023-12-07T14:07:38;9.88;;;8.10;;
78916;SDS011;68315;48.608;11.436;2023-12-07T14:10:03;12.43;;;9.30;;
78916;SDS011;68315;48.608;11.436;2023-12-07T14:12:28;9.27;;;7.75;;